Huvudsida
METAR-TAF:

METAR-TAF

Flygplatser :

Aqtöbe, Kazakstan

latitud: 50-17N, longitud: 057-09E, höjd: 227 m

Aktuellt väderrapport

Denna rapport gjordes för 34 minuter sedan, klockan 01:00 UTC
Stilla vind
Temperatur 17°C
Fuktighet 42%
Tryck 1014 hPa
Sikt 10 km eller mer
Inga moln under 1 500 m eller inga cumulonimbus

METAR: UATT 220100Z 00000MPS CAVOK 17/04 Q1014 R31/70D NOSIG RMK QFE741/0988

Tid: 06:34 (01:34 UTC)

Väderprognos

Denna rapport gjordes för 2 timmar och 34 minuter sedan, klockan 23:00 UTC
Prognos gäller från 22 kl. 00 UTC till 22 kl. 24 UTC
Vind 10 kt från väst/sydväst
Sikt 10 km eller mer
Spridda moln på en höjd av 5000 ft
Temporärt
från 22 kl. 00 UTC till 22 kl. 06 UTC
Sikt: 5000 m
rök
Temporärt
från 22 kl. 08 UTC till 22 kl. 13 UTC
Vind 19 kt från väst

TAF: UATT 212300Z 2200/2224 25005MPS 9999 SCT050 TX31/2211Z TN15/2201Z TEMPO 2200/2206 5000 FU TEMPO 2208/2213 27010MPS

Aktuella väderrapporter och prognoser från 4000 flygplatser (METAR- och TAF-rapporter).

De tillgängliga stationerna syns som gula och röda prickar på kartan.

För musen över prickarna för att se namnen på stationerna.

Klicka sedan för att få väderrapporter och prognoser.

För att ändra kartan: Klicka på de gröna knapparna med ett svart kors på för att zooma in; den gröna knappen med ett streck på för att zooma ut; eller på de gröna pilarna för angränsande kartor.


METAR-TAF: